createdAt,value
2018-12-03T00:01:31.736Z,52.90
2018-12-03T00:04:06.448Z,52.93
2018-12-03T00:06:34.987Z,47.40
2018-12-03T00:09:04.152Z,42.43
2018-12-03T00:11:32.440Z,37.93
2018-12-03T00:14:00.784Z,44.20
2018-12-03T00:16:29.668Z,34.23
2018-12-03T00:18:58.067Z,34.23
2018-12-03T00:21:26.522Z,30.63
2018-12-03T00:23:55.004Z,32.57
2018-12-03T00:26:23.469Z,26.77
2018-12-03T00:28:51.879Z,31.80
2018-12-03T00:31:20.277Z,27.47
2018-12-03T00:33:48.708Z,24.37
2018-12-03T00:36:17.128Z,30.50
2018-12-03T00:38:45.555Z,26.03
2018-12-03T00:41:14.025Z,23.63
2018-12-03T00:43:42.406Z,28.30
2018-12-03T00:46:10.711Z,25.77
2018-12-03T00:48:39.059Z,27.00
2018-12-03T00:51:07.607Z,28.53
2018-12-03T00:53:36.055Z,32.00
2018-12-03T00:56:04.397Z,27.13
2018-12-03T00:58:32.777Z,33.53
2018-12-03T01:01:01.112Z,30.40
2018-12-03T01:03:29.451Z,30.80
2018-12-03T01:05:57.846Z,35.37
2018-12-03T01:08:26.243Z,34.93
2018-12-03T01:10:54.643Z,41.90
2018-12-03T01:13:23.024Z,35.80
2018-12-03T01:15:51.517Z,38.87
2018-12-03T01:18:19.880Z,47.57
2018-12-03T01:20:48.206Z,45.17
2018-12-03T01:23:16.536Z,43.50
2018-12-03T01:25:44.945Z,51.13
2018-12-03T01:28:13.239Z,48.63
2018-12-03T01:30:41.655Z,43.63
2018-12-03T01:33:09.986Z,48.13
2018-12-03T01:35:38.341Z,53.83
2018-12-03T01:38:06.967Z,47.17
2018-12-03T01:40:35.357Z,46.87
2018-12-03T01:43:03.743Z,49.27
2018-12-03T01:45:32.115Z,53.27
2018-12-03T01:48:00.546Z,49.53
2018-12-03T01:50:28.855Z,45.63
2018-12-03T01:52:57.203Z,53.60
2018-12-03T01:55:25.666Z,47.10
2018-12-03T01:57:54.112Z,46.87
2018-12-03T02:00:22.527Z,40.47
2018-12-03T02:02:50.895Z,50.00
2018-12-03T02:05:19.266Z,49.03
2018-12-03T02:07:47.593Z,44.93
2018-12-03T02:10:16.284Z,44.80
2018-12-03T02:12:44.643Z,40.47
2018-12-03T02:15:14.065Z,42.50
2018-12-03T02:17:42.811Z,43.43
2018-12-03T02:20:16.247Z,46.43
2018-12-03T02:22:44.602Z,45.87
2018-12-03T02:25:13.119Z,45.90
2018-12-03T02:27:41.614Z,46.07
2018-12-03T02:30:17.647Z,41.33
2018-12-03T02:32:46.052Z,44.70
2018-12-03T02:35:14.835Z,49.00
2018-12-03T02:37:43.271Z,42.37
2018-12-03T02:40:14.807Z,44.57
2018-12-03T02:42:43.197Z,43.10
2018-12-03T02:45:12.499Z,42.67
2018-12-03T02:47:40.938Z,39.70
2018-12-03T02:50:11.472Z,43.77
2018-12-03T02:52:39.960Z,39.63
2018-12-03T02:55:10.381Z,45.00
2018-12-03T02:57:38.793Z,47.27
2018-12-03T03:00:13.321Z,42.17
2018-12-03T03:02:42.200Z,42.27
2018-12-03T03:05:14.676Z,44.37
2018-12-03T03:07:43.358Z,41.33
2018-12-03T03:10:13.669Z,37.47
2018-12-03T03:12:42.023Z,45.53
2018-12-03T03:15:11.807Z,39.20
2018-12-03T03:17:40.183Z,38.47
2018-12-03T03:20:09.843Z,46.87
2018-12-03T03:22:38.152Z,47.07
2018-12-03T03:25:07.754Z,48.93
2018-12-03T03:27:36.078Z,48.43
2018-12-03T03:30:06.889Z,49.53
2018-12-03T03:32:35.256Z,45.80
2018-12-03T03:35:03.548Z,52.03
2018-12-03T03:37:31.893Z,59.83
2018-12-03T03:40:00.182Z,53.90
2018-12-03T03:42:28.494Z,57.43
2018-12-03T03:44:56.795Z,59.53
2018-12-03T03:47:25.075Z,57.87
2018-12-03T03:49:53.536Z,53.63
2018-12-03T03:52:21.809Z,58.87
2018-12-03T03:54:50.084Z,55.17
2018-12-03T03:57:18.369Z,55.70
2018-12-03T03:59:46.646Z,53.00
2018-12-03T04:02:14.935Z,57.93
2018-12-03T04:04:43.203Z,55.33
2018-12-03T04:07:11.520Z,45.43
2018-12-03T04:09:39.953Z,50.20
2018-12-03T04:12:08.235Z,47.27
2018-12-03T04:14:36.556Z,48.47
2018-12-03T04:17:04.955Z,55.07
2018-12-03T04:19:33.268Z,56.07
2018-12-03T04:22:01.590Z,60.77
2018-12-03T04:24:29.901Z,57.13
2018-12-03T04:26:58.177Z,61.67
2018-12-03T04:29:26.520Z,63.77
2018-12-03T04:31:55.103Z,62.13
2018-12-03T04:34:23.400Z,54.93
2018-12-03T04:36:51.715Z,58.83
2018-12-03T04:39:20.013Z,63.20
2018-12-03T04:41:48.313Z,65.30
2018-12-03T04:44:16.605Z,54.90
2018-12-03T04:46:44.931Z,52.00
2018-12-03T04:49:13.196Z,52.97
2018-12-03T04:51:41.532Z,57.63
2018-12-03T04:54:09.800Z,57.57
2018-12-03T04:56:38.092Z,57.27
2018-12-03T04:59:06.384Z,54.87
2018-12-03T05:01:34.927Z,56.67
2018-12-03T05:04:03.208Z,57.90
2018-12-03T05:06:31.538Z,48.80
2018-12-03T05:08:59.792Z,49.80
2018-12-03T05:11:28.051Z,51.40
2018-12-03T05:13:56.324Z,47.47
2018-12-03T05:16:24.604Z,49.93
2018-12-03T05:18:53.019Z,48.77
2018-12-03T05:21:21.324Z,48.00
2018-12-03T05:23:49.588Z,51.17
2018-12-03T05:26:17.918Z,48.93
2018-12-03T05:28:46.388Z,47.83
2018-12-03T05:31:14.668Z,46.47
2018-12-03T05:33:43.113Z,47.83
2018-12-03T05:36:11.443Z,47.07
2018-12-03T05:38:39.762Z,47.30
2018-12-03T05:41:08.033Z,47.53
2018-12-03T05:43:36.377Z,44.00
2018-12-03T05:46:04.688Z,41.70
2018-12-03T05:48:33.012Z,42.50
2018-12-03T05:51:01.292Z,42.70
2018-12-03T05:53:29.557Z,44.37
2018-12-03T05:55:57.855Z,40.43
2018-12-03T05:58:26.151Z,39.47
2018-12-03T06:00:54.517Z,34.83
2018-12-03T06:03:23.166Z,37.30
2018-12-03T06:05:51.459Z,38.13
2018-12-03T06:08:19.735Z,37.70
2018-12-03T06:10:48.068Z,37.17
2018-12-03T06:13:16.317Z,31.83
2018-12-03T06:15:44.588Z,42.50
2018-12-03T06:18:12.894Z,35.20
2018-12-03T06:20:41.236Z,31.80
2018-12-03T06:23:09.826Z,36.67
2018-12-03T06:25:38.112Z,38.43
2018-12-03T06:28:06.635Z,39.63
2018-12-03T06:30:34.887Z,45.23
2018-12-03T06:33:03.197Z,41.57
2018-12-03T06:35:31.510Z,46.77
2018-12-03T06:38:00.027Z,51.27
2018-12-03T06:40:30.373Z,45.80
2018-12-03T06:42:58.684Z,72.80
2018-12-03T06:45:27.460Z,53.33
2018-12-03T06:48:00.901Z,51.00
2018-12-03T06:50:29.211Z,60.67
2018-12-03T06:52:57.452Z,65.77
2018-12-03T06:55:25.712Z,56.17
2018-12-03T06:57:54.138Z,75.27
2018-12-03T07:00:23.583Z,67.57
2018-12-03T07:02:51.865Z,67.90
2018-12-03T07:05:20.201Z,98.33
2018-12-03T07:07:49.921Z,54.83
2018-12-03T07:10:19.339Z,45.03
2018-12-03T07:12:49.948Z,33.30
2018-12-03T07:15:21.032Z,60.67
2018-12-03T07:17:50.476Z,66.33
2018-12-03T07:20:18.749Z,23.80
2018-12-03T07:22:46.979Z,21.17
2018-12-03T07:25:15.423Z,34.10
2018-12-03T07:27:43.688Z,40.03
2018-12-03T07:30:15.153Z,67.30
2018-12-03T07:32:43.847Z,80.70
2018-12-03T07:35:12.138Z,91.53
2018-12-03T07:37:40.391Z,45.87
2018-12-03T07:40:09.863Z,49.07
2018-12-03T07:42:38.199Z,57.47
2018-12-03T07:45:10.820Z,45.73
2018-12-03T07:47:39.072Z,44.50
2018-12-03T07:50:11.530Z,45.27
2018-12-03T07:52:39.914Z,79.40
2018-12-03T07:55:09.720Z,123.53
2018-12-03T07:57:38.772Z,53.27
2018-12-03T08:00:10.897Z,65.07
2018-12-03T08:02:39.218Z,59.97
2018-12-03T08:05:08.941Z,42.10
2018-12-03T08:07:37.260Z,60.23
2018-12-03T08:10:09.381Z,55.83
2018-12-03T08:12:37.709Z,45.20
2018-12-03T08:15:12.871Z,60.23
2018-12-03T08:17:43.664Z,45.97
2018-12-03T08:20:15.913Z,45.50
2018-12-03T08:22:47.300Z,71.87
2018-12-03T08:25:16.096Z,56.53
2018-12-03T08:27:44.364Z,52.37
2018-12-03T08:30:12.972Z,61.77
2018-12-03T08:32:41.476Z,57.00
2018-12-03T08:35:14.128Z,56.70
2018-12-03T08:37:42.518Z,58.93
2018-12-03T08:40:17.132Z,67.20
2018-12-03T08:42:47.710Z,43.10
2018-12-03T08:45:16.311Z,52.07
2018-12-03T08:47:44.880Z,54.20
2018-12-03T08:50:16.284Z,43.50
2018-12-03T08:52:44.513Z,43.10
2018-12-03T08:55:12.840Z,67.80
2018-12-03T08:57:41.143Z,57.13
2018-12-03T09:01:15.420Z,41.20
2018-12-03T09:03:45.963Z,36.20
2018-12-03T09:06:14.441Z,47.73
2018-12-03T09:08:47.840Z,42.13
2018-12-03T09:11:16.740Z,32.63
2018-12-03T09:13:45.047Z,30.17
2018-12-03T09:16:13.597Z,53.80
2018-12-03T09:18:41.932Z,33.50
2018-12-03T09:21:13.195Z,32.97
2018-12-03T09:23:42.604Z,46.43
2018-12-03T09:26:11.571Z,28.87
2018-12-03T09:28:39.904Z,46.30
2018-12-03T09:31:08.411Z,68.80
2018-12-03T09:33:36.787Z,57.83
2018-12-03T09:36:05.920Z,39.83
2018-12-03T09:38:47.070Z,44.97
2018-12-03T09:41:15.416Z,44.73
2018-12-03T09:43:44.453Z,41.30
2018-12-03T09:46:12.851Z,36.97
2018-12-03T09:48:41.217Z,37.83
2018-12-03T09:51:10.629Z,35.73
2018-12-03T09:53:39.396Z,41.67
2018-12-03T09:56:07.829Z,35.10
2018-12-03T09:58:36.239Z,48.27
2018-12-03T10:01:04.803Z,45.03
2018-12-03T10:03:38.820Z,36.27
2018-12-03T10:06:10.875Z,30.50
2018-12-03T10:08:39.137Z,34.33
2018-12-03T10:11:07.487Z,43.17
2018-12-03T10:13:35.804Z,39.50
2018-12-03T10:16:04.088Z,48.93
2018-12-03T10:18:32.495Z,38.77
2018-12-03T10:21:01.538Z,35.27
2018-12-03T10:23:29.875Z,38.83
2018-12-03T10:25:59.628Z,31.73
2018-12-03T10:28:28.500Z,34.67
2018-12-03T10:30:57.904Z,38.23
2018-12-03T10:33:29.016Z,25.00
2018-12-03T10:35:58.672Z,34.17
2018-12-03T10:38:28.117Z,34.73
2018-12-03T10:40:59.408Z,37.13
2018-12-03T10:43:27.679Z,37.17
2018-12-03T10:45:56.002Z,38.77
2018-12-03T10:48:24.271Z,31.47
2018-12-03T10:50:52.596Z,29.00
2018-12-03T10:53:25.295Z,32.47
2018-12-03T10:55:53.644Z,32.10
2018-12-03T10:58:22.013Z,33.33
2018-12-03T11:01:00.443Z,30.73
2018-12-03T11:03:34.101Z,30.67
2018-12-03T11:06:08.797Z,29.07
2018-12-03T11:08:37.260Z,33.10
2018-12-03T11:11:05.799Z,26.50
2018-12-03T11:13:34.148Z,35.10
2018-12-03T11:16:02.503Z,35.30
2018-12-03T11:18:36.391Z,27.03
2018-12-03T11:21:06.077Z,28.47
2018-12-03T11:23:34.827Z,32.77
2018-12-03T11:26:03.075Z,26.47
2018-12-03T11:28:38.159Z,37.27
2018-12-03T11:31:08.864Z,31.63
2018-12-03T11:33:37.154Z,26.97
2018-12-03T11:36:06.954Z,30.83
2018-12-03T11:38:40.638Z,27.97
2018-12-03T11:41:08.951Z,37.90
2018-12-03T11:43:37.216Z,28.53
2018-12-03T11:46:06.183Z,24.80
2018-12-03T11:48:40.766Z,28.77
2018-12-03T11:51:09.083Z,31.87
2018-12-03T11:53:37.420Z,33.60
2018-12-03T11:56:06.014Z,32.53
2018-12-03T11:58:34.548Z,27.53
2018-12-03T12:01:02.861Z,25.33
2018-12-03T12:03:31.167Z,29.27
2018-12-03T12:05:59.691Z,29.90
2018-12-03T12:08:28.693Z,22.93
2018-12-03T12:10:57.031Z,39.57
2018-12-03T12:13:54.239Z,25.63
2018-12-03T12:16:21.769Z,28.03
2018-12-03T12:18:49.238Z,30.33
2018-12-03T12:21:16.813Z,28.10
2018-12-03T12:23:44.270Z,29.37
2018-12-03T12:26:11.734Z,38.20
2018-12-03T12:28:39.265Z,24.53
2018-12-03T12:31:11.104Z,29.13
2018-12-03T12:33:38.560Z,21.63
2018-12-03T12:36:06.068Z,28.03
2018-12-03T12:38:33.576Z,24.53
2018-12-03T12:41:01.048Z,23.80
2018-12-03T12:43:29.457Z,28.80
2018-12-03T12:45:56.979Z,30.47
2018-12-03T12:48:24.440Z,39.37
2018-12-03T12:50:51.907Z,28.13
2018-12-03T12:53:19.467Z,32.43
2018-12-03T12:55:46.979Z,29.80
2018-12-03T12:58:14.449Z,23.70
2018-12-03T13:00:41.906Z,30.70
2018-12-03T13:03:09.399Z,29.70
2018-12-03T13:05:36.941Z,33.33
2018-12-03T13:08:04.648Z,32.77
2018-12-03T13:10:32.209Z,23.47
2018-12-03T13:12:59.668Z,25.90
2018-12-03T13:15:27.131Z,39.60
2018-12-03T13:17:54.628Z,39.77
2018-12-03T13:20:22.194Z,31.50
2018-12-03T13:22:49.804Z,40.77
2018-12-03T13:25:17.245Z,32.37
2018-12-03T13:27:44.761Z,29.70
2018-12-03T13:30:13.629Z,35.30
2018-12-03T13:32:41.368Z,37.23
2018-12-03T13:35:08.926Z,35.60
2018-12-03T13:37:36.399Z,30.17
2018-12-03T13:40:05.997Z,32.17
2018-12-03T13:42:33.431Z,31.27
2018-12-03T13:45:00.880Z,32.47
2018-12-03T13:47:28.367Z,32.20
2018-12-03T13:49:55.820Z,32.20
2018-12-03T13:52:23.288Z,29.27
2018-12-03T13:54:50.791Z,24.57
2018-12-03T13:57:18.285Z,28.73
2018-12-03T13:59:45.776Z,31.50
2018-12-03T14:02:13.228Z,30.73
2018-12-03T14:04:40.738Z,22.87
2018-12-03T14:07:08.239Z,31.27
2018-12-03T14:09:35.716Z,25.37
2018-12-03T14:12:03.887Z,26.90
2018-12-03T14:14:31.403Z,27.87
2018-12-03T14:16:58.921Z,25.37
2018-12-03T14:19:26.428Z,22.63
2018-12-03T14:21:54.007Z,24.33
2018-12-03T14:24:21.541Z,24.90
2018-12-03T14:26:49.065Z,28.13
2018-12-03T14:29:16.548Z,29.43
2018-12-03T14:31:43.984Z,35.33
2018-12-03T14:34:15.338Z,30.43
2018-12-03T14:36:42.783Z,31.07
2018-12-03T14:39:10.246Z,25.03
2018-12-03T14:41:37.684Z,30.50
2018-12-03T14:44:05.150Z,28.60
2018-12-03T14:46:32.600Z,26.13
2018-12-03T14:49:00.078Z,30.37
2018-12-03T14:51:27.530Z,25.87
2018-12-03T14:53:54.959Z,30.40
2018-12-03T14:56:22.401Z,32.37
2018-12-03T14:58:49.872Z,34.97
2018-12-03T15:01:17.308Z,27.80
2018-12-03T15:03:44.781Z,31.63
2018-12-03T15:06:12.247Z,27.73
2018-12-03T15:08:39.686Z,23.93
2018-12-03T15:11:07.127Z,26.60
2018-12-03T15:13:34.612Z,29.00
2018-12-03T15:16:02.082Z,35.43
2018-12-03T15:18:29.536Z,31.80
2018-12-03T15:20:56.973Z,28.83
2018-12-03T15:23:24.435Z,30.73
2018-12-03T15:25:52.030Z,34.43
2018-12-03T15:28:19.556Z,26.93
2018-12-03T15:30:47.017Z,32.60
2018-12-03T15:33:14.524Z,31.03
2018-12-03T15:35:42.075Z,30.13
2018-12-03T15:38:09.608Z,37.07
2018-12-03T15:40:37.051Z,32.40
2018-12-03T15:43:04.522Z,27.90
2018-12-03T15:45:32.004Z,36.60
2018-12-03T15:47:59.469Z,31.63
2018-12-03T15:50:26.929Z,27.73
2018-12-03T15:52:54.492Z,31.20
2018-12-03T15:55:21.941Z,28.00
2018-12-03T15:57:49.520Z,34.20
2018-12-03T16:00:17.032Z,29.60
2018-12-03T16:02:44.472Z,29.23
2018-12-03T16:05:11.923Z,25.17
2018-12-03T16:07:39.388Z,32.43
2018-12-03T16:10:07.673Z,41.03
2018-12-03T16:12:35.160Z,36.40
2018-12-03T16:15:02.689Z,32.60
2018-12-03T16:17:30.181Z,38.23
2018-12-03T16:19:57.637Z,33.33
2018-12-03T16:22:25.097Z,32.13
2018-12-03T16:24:52.526Z,33.10
2018-12-03T16:27:19.984Z,34.90
2018-12-03T16:29:47.448Z,36.03
2018-12-03T16:32:14.907Z,31.67
2018-12-03T16:34:42.341Z,38.00
2018-12-03T16:37:09.925Z,37.10
2018-12-03T16:39:37.380Z,33.07
2018-12-03T16:42:04.896Z,35.90
2018-12-03T16:44:32.337Z,41.83
2018-12-03T16:46:59.840Z,41.37
2018-12-03T16:49:27.281Z,33.13
2018-12-03T16:51:54.736Z,33.50
2018-12-03T16:54:22.220Z,31.47
2018-12-03T16:56:49.672Z,39.40
2018-12-03T16:59:17.144Z,43.10
2018-12-03T17:01:44.624Z,33.57
2018-12-03T17:04:12.090Z,38.47
2018-12-03T17:06:39.671Z,38.43
2018-12-03T17:09:07.156Z,38.43
2018-12-03T17:11:34.767Z,44.77
2018-12-03T17:14:02.215Z,37.40
2018-12-03T17:16:29.664Z,35.10
2018-12-03T17:18:57.131Z,42.37
2018-12-03T17:21:24.668Z,35.90
2018-12-03T17:23:52.227Z,35.20
2018-12-03T17:26:19.666Z,33.97
2018-12-03T17:28:47.204Z,43.00
2018-12-03T17:31:14.667Z,39.40
2018-12-03T17:33:42.135Z,38.13
2018-12-03T17:36:09.652Z,34.27
2018-12-03T17:38:37.099Z,45.43
2018-12-03T17:41:04.623Z,36.37
2018-12-03T17:43:32.063Z,41.83
2018-12-03T17:45:59.504Z,42.50
2018-12-03T17:48:27.023Z,37.37
2018-12-03T17:50:54.545Z,37.57
2018-12-03T17:53:22.088Z,39.73
2018-12-03T17:55:49.587Z,41.77
2018-12-03T17:58:17.019Z,36.43
2018-12-03T18:00:44.465Z,48.83
2018-12-03T18:03:11.976Z,37.37
2018-12-03T18:05:39.435Z,40.77
2018-12-03T18:08:06.967Z,40.83
2018-12-03T18:10:34.454Z,45.00
2018-12-03T18:13:01.905Z,40.83
2018-12-03T18:15:29.369Z,34.33
2018-12-03T18:17:56.799Z,43.07
2018-12-03T18:20:24.405Z,41.63
2018-12-03T18:22:51.881Z,38.27
2018-12-03T18:25:19.313Z,42.50
2018-12-03T18:27:46.787Z,41.97
2018-12-03T18:30:14.217Z,40.97
2018-12-03T18:32:41.647Z,46.37
2018-12-03T18:35:09.099Z,42.00
2018-12-03T18:37:36.532Z,40.60
2018-12-03T18:40:04.901Z,44.37
2018-12-03T18:42:32.351Z,48.47
2018-12-03T18:44:59.943Z,41.23
2018-12-03T18:47:27.400Z,44.00
2018-12-03T18:49:54.844Z,43.87
2018-12-03T18:52:22.304Z,39.43
2018-12-03T18:54:49.747Z,43.97
2018-12-03T18:57:17.187Z,41.90
2018-12-03T18:59:44.655Z,36.27
2018-12-03T19:02:12.153Z,45.97
2018-12-03T19:04:39.632Z,45.63
2018-12-03T19:07:07.099Z,40.47
2018-12-03T19:09:34.574Z,41.67
2018-12-03T19:12:02.152Z,45.63
2018-12-03T19:14:29.587Z,47.33
2018-12-03T19:16:57.053Z,41.80
2018-12-03T19:19:24.494Z,46.73
2018-12-03T19:21:52.613Z,56.20
2018-12-03T19:24:20.376Z,47.03
2018-12-03T19:26:47.922Z,46.10
2018-12-03T19:29:15.480Z,37.33
2018-12-03T19:31:42.947Z,45.87
2018-12-03T19:34:10.400Z,42.73
2018-12-03T19:36:38.005Z,40.57
2018-12-03T19:39:06.063Z,40.53
2018-12-03T19:41:33.500Z,35.00
2018-12-03T19:44:00.956Z,43.20
2018-12-03T19:46:28.440Z,42.83
2018-12-03T19:48:55.933Z,45.60
2018-12-03T19:51:23.449Z,43.03
2018-12-03T19:53:50.964Z,40.30
2018-12-03T19:56:18.452Z,42.93
2018-12-03T19:58:45.991Z,42.13
2018-12-03T20:01:13.452Z,47.20
2018-12-03T20:03:40.948Z,53.93
2018-12-03T20:06:08.456Z,52.63
2018-12-03T20:08:35.929Z,48.13
2018-12-03T20:11:03.624Z,51.53
2018-12-03T20:13:31.128Z,51.27
2018-12-03T20:15:58.678Z,60.77
2018-12-03T20:18:26.256Z,54.17
2018-12-03T20:20:53.760Z,59.43
2018-12-03T20:23:21.220Z,66.60
2018-12-03T20:25:48.757Z,61.30
2018-12-03T20:28:16.312Z,79.87
2018-12-03T20:30:44.364Z,67.60
2018-12-03T20:33:12.202Z,59.33
2018-12-03T20:35:39.909Z,96.83
2018-12-03T20:38:07.361Z,113.07
2018-12-03T20:40:35.063Z,93.10
2018-12-03T20:43:02.621Z,111.27
2018-12-03T20:45:36.577Z,99.30
2018-12-03T20:48:05.348Z,254.00
2018-12-03T20:50:33.051Z,157.10
2018-12-03T20:53:00.493Z,122.27
2018-12-03T20:55:27.997Z,113.17
2018-12-03T20:57:55.455Z,126.13
2018-12-03T21:00:22.972Z,132.17
2018-12-03T21:02:50.412Z,138.77
2018-12-03T21:05:17.900Z,114.53
2018-12-03T21:07:45.378Z,144.37
2018-12-03T21:10:12.897Z,110.83
2018-12-03T21:12:40.363Z,152.10
2018-12-03T21:15:07.804Z,145.63
2018-12-03T21:17:35.299Z,76.43
2018-12-03T21:20:05.364Z,117.70
2018-12-03T21:22:32.840Z,115.23
2018-12-03T21:25:00.567Z,162.87
2018-12-03T21:27:28.203Z,107.87
2018-12-03T21:29:55.746Z,123.87
2018-12-03T21:32:23.245Z,129.07
2018-12-03T21:34:50.728Z,166.10
2018-12-03T21:37:18.184Z,56.43
2018-12-03T21:39:48.054Z,57.73
2018-12-03T21:42:15.134Z,34.60
2018-12-03T21:44:42.580Z,28.57
2018-12-03T21:47:10.975Z,30.90
2018-12-03T21:49:38.442Z,26.87
2018-12-03T21:52:05.890Z,22.93
2018-12-03T21:54:33.321Z,22.43
2018-12-03T21:57:00.829Z,28.07
2018-12-03T21:59:28.266Z,20.93
2018-12-03T22:01:55.711Z,14.27
2018-12-03T22:04:23.185Z,17.57
2018-12-03T22:06:50.665Z,20.23
2018-12-03T22:09:18.114Z,25.77
2018-12-03T22:11:45.657Z,23.60
2018-12-03T22:14:13.088Z,19.00
2018-12-03T22:16:40.536Z,25.10
2018-12-03T22:19:07.964Z,18.77
2018-12-03T22:21:35.436Z,25.10
2018-12-03T22:24:02.876Z,17.47
2018-12-03T22:26:30.412Z,22.97
2018-12-03T22:28:57.874Z,17.73
2018-12-03T22:31:25.317Z,17.70
2018-12-03T22:33:52.783Z,20.03
2018-12-03T22:36:20.229Z,18.37
2018-12-03T22:38:47.692Z,17.33
2018-12-03T22:41:15.157Z,22.07
2018-12-03T22:43:42.632Z,15.60
2018-12-03T22:46:10.084Z,22.63
2018-12-03T22:48:37.589Z,12.90
2018-12-03T22:51:05.149Z,28.13
2018-12-03T22:53:32.608Z,13.93
2018-12-03T22:56:00.128Z,24.70
2018-12-03T22:58:27.571Z,21.87
2018-12-03T23:00:58.944Z,18.47
2018-12-03T23:03:26.531Z,20.30
2018-12-03T23:05:53.988Z,16.93
2018-12-03T23:08:21.425Z,14.63
2018-12-03T23:10:48.881Z,16.97
2018-12-03T23:13:16.412Z,22.30
2018-12-03T23:15:43.884Z,18.93
2018-12-03T23:18:11.369Z,15.27
2018-12-03T23:20:38.816Z,13.97
2018-12-03T23:23:06.256Z,16.80
2018-12-03T23:25:33.719Z,25.23
2018-12-03T23:28:01.183Z,23.80
2018-12-03T23:30:28.623Z,19.17
2018-12-03T23:32:56.059Z,14.57
2018-12-03T23:35:23.529Z,19.73
2018-12-03T23:37:50.956Z,17.07
2018-12-03T23:40:18.391Z,10.77
2018-12-03T23:42:45.848Z,21.17
2018-12-03T23:45:13.285Z,25.83
2018-12-03T23:47:40.752Z,22.03
2018-12-03T23:50:08.296Z,23.37
2018-12-03T23:52:35.764Z,20.57
2018-12-03T23:55:03.287Z,18.33
2018-12-03T23:57:30.718Z,18.23
2018-12-03T23:59:58.164Z,21.23
